createdAt,value
2019-05-20T00:01:38.298Z,97922.86
2019-05-20T00:04:12.653Z,97916.03
2019-05-20T00:06:46.920Z,97914.89
2019-05-20T00:09:20.527Z,97914.42
2019-05-20T00:11:53.972Z,97917.51
2019-05-20T00:14:27.660Z,97919.77
2019-05-20T00:17:01.253Z,97925.55
2019-05-20T00:19:34.848Z,97925.84
2019-05-20T00:22:07.922Z,97927.84
2019-05-20T00:24:41.280Z,97920.22
2019-05-20T00:27:15.020Z,97928.25
2019-05-20T00:29:48.172Z,97920.91
2019-05-20T00:32:21.380Z,97928.39
2019-05-20T00:34:54.376Z,97924.00
2019-05-20T00:37:28.298Z,97921.71
2019-05-20T00:40:01.498Z,97919.45
2019-05-20T00:42:34.943Z,97921.38
2019-05-20T00:45:08.432Z,97922.22
2019-05-20T00:47:42.089Z,97921.71
2019-05-20T00:50:15.622Z,97920.77
2019-05-20T00:52:48.969Z,97920.70
2019-05-20T00:55:27.813Z,97917.67
2019-05-20T00:58:01.625Z,97926.08
2019-05-20T01:00:35.223Z,97925.67
2019-05-20T01:03:08.921Z,97927.34
2019-05-20T01:05:43.233Z,97928.03
2019-05-20T01:08:16.742Z,97933.45
2019-05-20T01:10:50.280Z,97922.98
2019-05-20T01:13:23.958Z,97925.67
2019-05-20T01:15:58.143Z,97929.59
2019-05-20T01:18:31.472Z,97927.70
2019-05-20T01:21:04.298Z,97929.12
2019-05-20T01:23:37.545Z,97939.38
2019-05-20T01:26:11.089Z,97937.19
2019-05-20T01:28:44.440Z,97944.35
2019-05-20T01:31:18.444Z,97945.59
2019-05-20T01:33:51.764Z,97943.63
2019-05-20T01:36:25.147Z,97946.60
2019-05-20T01:38:58.792Z,97946.79
2019-05-20T01:41:32.262Z,97940.86
2019-05-20T01:44:05.780Z,97944.09
2019-05-20T01:46:40.211Z,97943.23
2019-05-20T01:49:13.182Z,97947.52
2019-05-20T01:51:46.394Z,97940.75
2019-05-20T01:54:20.090Z,97938.90
2019-05-20T01:56:54.019Z,97939.12
2019-05-20T01:59:27.522Z,97939.73
2019-05-20T02:02:01.344Z,97936.90
2019-05-20T02:04:35.721Z,97936.90
2019-05-20T02:07:09.098Z,97934.14
2019-05-20T02:09:44.951Z,97934.97
2019-05-20T02:12:18.675Z,97930.28
2019-05-20T02:15:04.339Z,97927.67
2019-05-20T02:17:37.862Z,97926.29
2019-05-20T02:20:13.395Z,97922.30
2019-05-20T02:22:46.669Z,97921.93
2019-05-20T02:25:20.887Z,97923.67
2019-05-20T02:27:54.170Z,97924.14
2019-05-20T02:30:27.103Z,97930.33
2019-05-20T02:33:00.843Z,97926.84
2019-05-20T02:35:35.166Z,97929.78
2019-05-20T02:38:08.456Z,97929.31
2019-05-20T02:40:42.228Z,97924.61
2019-05-20T02:43:15.577Z,97924.25
2019-05-20T02:45:49.124Z,97930.39
2019-05-20T02:48:22.489Z,97921.16
2019-05-20T02:50:55.676Z,97927.73
2019-05-20T02:53:29.681Z,97923.41
2019-05-20T02:56:03.061Z,97923.19
2019-05-20T02:58:36.203Z,97929.34
2019-05-20T03:01:09.803Z,97913.23
2019-05-20T03:03:42.969Z,97919.55
2019-05-20T03:06:16.583Z,97922.20
2019-05-20T03:08:49.791Z,97916.56
2019-05-20T03:11:23.129Z,97920.41
2019-05-20T03:13:56.781Z,97923.97
2019-05-20T03:16:29.949Z,97924.11
2019-05-20T03:19:03.429Z,97921.63
2019-05-20T03:21:36.478Z,97918.94
2019-05-20T03:24:10.465Z,97924.50
2019-05-20T03:26:43.804Z,97922.11
2019-05-20T03:29:17.037Z,97925.27
2019-05-20T03:31:50.061Z,97931.12
2019-05-20T03:34:44.236Z,97922.50
2019-05-20T03:36:58.134Z,97922.50
2019-05-20T03:39:31.896Z,97923.35
2019-05-20T03:42:05.070Z,97922.28
2019-05-20T03:44:38.324Z,97925.39
2019-05-20T03:47:11.601Z,97927.73
2019-05-20T03:49:44.496Z,97926.03
2019-05-20T03:52:18.082Z,97926.86
2019-05-20T03:54:51.331Z,97928.41
2019-05-20T03:57:25.039Z,97926.33
2019-05-20T03:59:58.461Z,97920.70
2019-05-20T04:02:32.149Z,97920.05
2019-05-20T04:05:06.401Z,97926.03
2019-05-20T04:07:40.116Z,97918.27
2019-05-20T04:10:14.109Z,97920.17
2019-05-20T04:12:47.683Z,97928.87
2019-05-20T04:15:21.221Z,97928.45
2019-05-20T04:17:55.042Z,97939.38
2019-05-20T04:20:28.559Z,97944.98
2019-05-20T04:23:02.413Z,97946.56
2019-05-20T04:25:35.964Z,97950.59
2019-05-20T04:28:09.619Z,97963.19
2019-05-20T04:30:43.645Z,97964.72
2019-05-20T04:33:17.639Z,97964.48
2019-05-20T04:35:51.089Z,97968.55
2019-05-20T04:38:24.831Z,97966.63
2019-05-20T04:40:58.749Z,97969.20
2019-05-20T04:43:32.155Z,97972.78
2019-05-20T04:46:06.010Z,97974.49
2019-05-20T04:48:39.641Z,97967.73
2019-05-20T04:51:13.057Z,97972.00
2019-05-20T04:53:46.447Z,97971.91
2019-05-20T04:56:19.698Z,97965.94
2019-05-20T04:58:54.235Z,97971.91
2019-05-20T05:01:27.966Z,97975.92
2019-05-20T05:04:01.873Z,97968.61
2019-05-20T05:06:36.743Z,97971.50
2019-05-20T05:09:15.316Z,97972.39
2019-05-20T05:11:46.530Z,97981.56
2019-05-20T05:14:20.084Z,97975.11
2019-05-20T05:16:53.095Z,97980.78
2019-05-20T05:19:26.597Z,97981.80
2019-05-20T05:22:00.803Z,97988.31
2019-05-20T05:24:34.183Z,97982.47
2019-05-20T05:27:07.159Z,97986.63
2019-05-20T05:29:40.501Z,97983.31
2019-05-20T05:32:14.301Z,97982.77
2019-05-20T05:34:47.885Z,97989.39
2019-05-20T05:37:21.364Z,97986.92
2019-05-20T05:39:55.183Z,97994.83
2019-05-20T05:42:29.683Z,97997.41
2019-05-20T05:45:03.734Z,98002.27
2019-05-20T05:47:37.495Z,97998.97
2019-05-20T05:50:11.520Z,97992.61
2019-05-20T05:52:45.282Z,97996.47
2019-05-20T05:55:19.233Z,97996.34
2019-05-20T05:57:52.487Z,98004.99
2019-05-20T06:00:26.884Z,98005.88
2019-05-20T06:03:00.577Z,98005.42
2019-05-20T06:05:34.173Z,98010.35
2019-05-20T06:08:09.179Z,98003.95
2019-05-20T06:10:43.227Z,98004.84
2019-05-20T06:13:17.089Z,98000.06
2019-05-20T06:15:50.843Z,98006.45
2019-05-20T06:18:24.238Z,98008.16
2019-05-20T06:20:57.543Z,98013.52
2019-05-20T06:23:30.823Z,98012.11
2019-05-20T06:26:04.414Z,98018.44
2019-05-20T06:28:38.213Z,98006.06
2019-05-20T06:31:12.388Z,98009.61
2019-05-20T06:33:46.615Z,98007.98
2019-05-20T06:36:26.768Z,98009.16
2019-05-20T06:39:15.900Z,98012.52
2019-05-20T06:41:49.642Z,98017.63
2019-05-20T06:44:23.393Z,98017.54
2019-05-20T06:46:57.828Z,98022.36
2019-05-20T06:49:33.685Z,98023.50
2019-05-20T06:52:07.948Z,98014.98
2019-05-20T06:54:42.135Z,98014.52
2019-05-20T06:57:16.201Z,98029.17
2019-05-20T06:59:50.263Z,98019.66
2019-05-20T07:02:23.699Z,98024.20
2019-05-20T07:04:57.525Z,98024.94
2019-05-20T07:07:31.653Z,98020.68
2019-05-20T07:10:04.992Z,98018.63
2019-05-20T07:12:41.687Z,98016.02
2019-05-20T07:15:14.249Z,98019.70
2019-05-20T07:17:47.704Z,98030.55
2019-05-20T07:20:22.278Z,98023.72
2019-05-20T07:22:57.042Z,98032.36
2019-05-20T07:25:31.975Z,98026.53
2019-05-20T07:28:05.748Z,98027.96
2019-05-20T07:30:39.892Z,98044.69
2019-05-20T07:33:13.680Z,98036.47
2019-05-20T07:35:47.921Z,98034.87
2019-05-20T07:38:21.772Z,98035.30
2019-05-20T07:40:55.772Z,98032.00
2019-05-20T07:43:29.766Z,98031.05
2019-05-20T07:46:04.524Z,98037.38
2019-05-20T07:48:38.830Z,98033.66
2019-05-20T07:51:22.900Z,98036.87
2019-05-20T07:53:57.323Z,98032.97
2019-05-20T07:56:39.182Z,98039.83
2019-05-20T07:59:15.994Z,98033.25
2019-05-20T08:01:51.821Z,98031.27
2019-05-20T08:04:26.443Z,98037.41
2019-05-20T08:07:00.300Z,98030.48
2019-05-20T08:09:39.749Z,98036.15
2019-05-20T08:12:10.051Z,98037.88
2019-05-20T08:14:44.316Z,98021.30
2019-05-20T08:17:21.576Z,98018.95
2019-05-20T08:19:55.299Z,98023.59
2019-05-20T08:22:28.674Z,98044.27
2019-05-20T08:25:02.509Z,98041.41
2019-05-20T08:27:37.008Z,98062.95
2019-05-20T08:30:13.987Z,98034.61
2019-05-20T08:32:46.931Z,98047.33
2019-05-20T08:35:23.737Z,98047.56
2019-05-20T08:37:57.485Z,98050.20
2019-05-20T08:40:32.395Z,98048.20
2019-05-20T08:43:12.288Z,98055.80
2019-05-20T08:45:47.217Z,98046.70
2019-05-20T08:48:23.972Z,98052.63
2019-05-20T08:51:00.372Z,98067.33
2019-05-20T08:53:36.132Z,98055.10
2019-05-20T08:56:10.684Z,98046.47
2019-05-20T08:58:45.390Z,98055.48
2019-05-20T09:01:21.301Z,98050.16
2019-05-20T09:03:57.639Z,98047.23
2019-05-20T09:06:33.073Z,98041.59
2019-05-20T09:09:11.989Z,98048.25
2019-05-20T09:11:47.490Z,98049.00
2019-05-20T09:14:21.332Z,98054.05
2019-05-20T09:16:56.041Z,98056.09
2019-05-20T09:19:30.868Z,98065.18
2019-05-20T09:22:05.797Z,98048.61
2019-05-20T09:24:40.084Z,98048.42
2019-05-20T09:27:13.632Z,98062.32
2019-05-20T09:29:48.945Z,98063.95
2019-05-20T09:32:23.841Z,98061.86
2019-05-20T09:34:59.542Z,98053.81
2019-05-20T09:37:33.495Z,98053.69
2019-05-20T09:40:09.167Z,98063.86
2019-05-20T09:42:43.501Z,98058.37
2019-05-20T09:45:17.973Z,98067.17
2019-05-20T09:47:52.270Z,98056.55
2019-05-20T09:50:29.120Z,98065.02
2019-05-20T09:53:06.826Z,98062.52
2019-05-20T09:55:40.456Z,98069.31
2019-05-20T09:58:14.248Z,98067.08
2019-05-20T10:00:49.380Z,98068.01
2019-05-20T10:03:23.926Z,98070.52
2019-05-20T10:05:57.556Z,98067.56
2019-05-20T10:08:37.945Z,98077.04
2019-05-20T10:11:07.890Z,98078.83
2019-05-20T10:13:41.716Z,98070.37
2019-05-20T10:16:15.354Z,98085.14
2019-05-20T10:19:01.201Z,98081.25
2019-05-20T10:21:36.263Z,98091.53
2019-05-20T10:24:10.239Z,98073.84
2019-05-20T10:26:44.439Z,98079.55
2019-05-20T10:29:18.505Z,98074.59
2019-05-20T10:31:52.561Z,98079.98
2019-05-20T10:34:26.401Z,98082.86
2019-05-20T10:37:00.700Z,98070.54
2019-05-20T10:39:36.167Z,98081.70
2019-05-20T10:42:09.631Z,98063.08
2019-05-20T10:44:43.110Z,98055.07
2019-05-20T10:47:17.490Z,98065.70
2019-05-20T10:49:57.277Z,98066.19
2019-05-20T10:52:30.839Z,98062.49
2019-05-20T10:55:04.682Z,98066.66
2019-05-20T10:57:39.079Z,98069.02
2019-05-20T11:00:13.640Z,98070.49
2019-05-20T11:02:48.287Z,98076.40
2019-05-20T11:05:23.017Z,98081.96
2019-05-20T11:07:57.334Z,98085.63
2019-05-20T11:10:30.861Z,98092.46
2019-05-20T11:13:05.674Z,98089.75
2019-05-20T11:15:45.230Z,98093.21
2019-05-20T11:18:19.519Z,98084.00
2019-05-20T11:20:53.925Z,98092.56
2019-05-20T11:23:27.704Z,98093.39
2019-05-20T11:26:01.129Z,98110.77
2019-05-20T11:28:34.415Z,98084.53
2019-05-20T11:31:08.646Z,98095.60
2019-05-20T11:33:42.632Z,98087.59
2019-05-20T11:36:16.564Z,98090.89
2019-05-20T11:38:56.855Z,98084.08
2019-05-20T11:41:52.088Z,98083.50
2019-05-20T11:44:11.800Z,98092.12
2019-05-20T11:46:43.980Z,98092.43
2019-05-20T11:49:17.372Z,98084.72
2019-05-20T11:51:50.896Z,98070.26
2019-05-20T11:54:24.947Z,98077.56
2019-05-20T11:56:58.660Z,98075.30
2019-05-20T11:59:32.449Z,98082.37
2019-05-20T12:02:06.098Z,98087.36
2019-05-20T12:04:40.473Z,98093.69
2019-05-20T12:07:14.390Z,98079.95
2019-05-20T12:09:50.012Z,98088.92
2019-05-20T12:12:23.741Z,98094.60
2019-05-20T12:14:57.137Z,98091.73
2019-05-20T12:17:30.659Z,98093.30
2019-05-20T12:20:05.515Z,98088.19
2019-05-20T12:22:40.469Z,98095.42
2019-05-20T12:25:15.168Z,98083.14
2019-05-20T12:27:49.005Z,98090.06
2019-05-20T12:30:24.124Z,98092.81
2019-05-20T12:33:18.107Z,98086.51
2019-05-20T12:35:39.907Z,98085.07
2019-05-20T12:38:15.500Z,98106.73
2019-05-20T12:40:56.073Z,98091.55
2019-05-20T12:43:35.278Z,98092.25
2019-05-20T12:46:10.231Z,98086.84
2019-05-20T12:48:44.402Z,98089.67
2019-05-20T12:51:18.954Z,98093.37
2019-05-20T12:53:52.968Z,98095.08
2019-05-20T12:56:27.100Z,98089.41
2019-05-20T12:59:01.685Z,98090.88
2019-05-20T13:01:35.749Z,98089.31
2019-05-20T13:04:11.860Z,98099.19
2019-05-20T13:06:45.928Z,98102.89
2019-05-20T13:09:20.777Z,98098.95
2019-05-20T13:11:55.368Z,98108.80
2019-05-20T13:14:30.326Z,98105.02
2019-05-20T13:17:11.289Z,98104.59
2019-05-20T13:19:45.480Z,98089.19
2019-05-20T13:22:20.437Z,98104.52
2019-05-20T13:24:54.358Z,98104.02
2019-05-20T13:27:28.523Z,98112.47
2019-05-20T13:30:02.534Z,98106.22
2019-05-20T13:32:37.869Z,98104.70
2019-05-20T13:35:12.409Z,98104.97
2019-05-20T13:37:52.068Z,98098.99
2019-05-20T13:40:42.943Z,98109.02
2019-05-20T13:43:03.778Z,98103.63
2019-05-20T13:45:39.839Z,98100.53
2019-05-20T13:48:14.590Z,98109.42
2019-05-20T13:50:50.088Z,98108.66
2019-05-20T13:53:24.217Z,98103.97
2019-05-20T13:55:59.105Z,98102.16
2019-05-20T13:58:33.655Z,98113.45
2019-05-20T14:01:08.020Z,98114.88
2019-05-20T14:03:43.020Z,98121.05
2019-05-20T14:06:23.216Z,98108.16
2019-05-20T14:08:57.951Z,98101.38
2019-05-20T14:11:34.503Z,98103.06
2019-05-20T14:14:07.824Z,98121.68
2019-05-20T14:16:42.679Z,98110.03
2019-05-20T14:19:17.316Z,98112.95
2019-05-20T14:21:51.101Z,98101.00
2019-05-20T14:24:26.029Z,98090.42
2019-05-20T14:27:01.774Z,98094.11
2019-05-20T14:29:35.688Z,98108.47
2019-05-20T14:32:10.563Z,98095.14
2019-05-20T14:34:45.022Z,98101.73
2019-05-20T14:37:23.604Z,98115.41
2019-05-20T14:39:58.470Z,98108.22
2019-05-20T14:42:40.574Z,98105.10
2019-05-20T14:45:16.893Z,98113.28
2019-05-20T14:47:52.140Z,98111.13
2019-05-20T14:50:28.961Z,98103.91
2019-05-20T14:53:03.571Z,98110.15
2019-05-20T14:55:42.653Z,98119.61
2019-05-20T14:58:14.178Z,98118.58
2019-05-20T15:00:52.386Z,98104.63
2019-05-20T15:03:27.831Z,98110.90
2019-05-20T15:06:02.782Z,98120.56
2019-05-20T15:08:37.554Z,98115.98
2019-05-20T15:11:11.893Z,98116.47
2019-05-20T15:13:46.630Z,98117.51
2019-05-20T15:16:21.854Z,98122.62
2019-05-20T15:18:57.768Z,98127.73
2019-05-20T15:21:33.109Z,98117.02
2019-05-20T15:24:07.476Z,98114.04
2019-05-20T15:26:42.654Z,98117.83
2019-05-20T15:29:27.570Z,98115.62
2019-05-20T15:31:53.506Z,98115.63
2019-05-20T15:34:28.214Z,98118.26
2019-05-20T15:37:05.320Z,98113.50
2019-05-20T15:39:39.949Z,98118.78
2019-05-20T15:42:15.954Z,98108.38
2019-05-20T15:44:50.649Z,98117.78
2019-05-20T15:47:26.946Z,98124.11
2019-05-20T15:50:03.896Z,98117.83
2019-05-20T15:52:37.847Z,98112.41
2019-05-20T15:55:12.329Z,98120.30
2019-05-20T15:57:46.962Z,98111.41
2019-05-20T16:00:22.319Z,98130.53
2019-05-20T16:02:56.766Z,98121.73
2019-05-20T16:05:30.873Z,98123.28
2019-05-20T16:08:05.701Z,98118.31
2019-05-20T16:10:41.458Z,98129.48
2019-05-20T16:13:16.264Z,98116.19
2019-05-20T16:15:50.797Z,98121.64
2019-05-20T16:18:24.944Z,98119.66
2019-05-20T16:20:59.401Z,98128.24
2019-05-20T16:23:34.100Z,98129.88
2019-05-20T16:26:12.774Z,98135.50
2019-05-20T16:28:48.342Z,98124.94
2019-05-20T16:31:23.467Z,98136.30
2019-05-20T16:33:59.639Z,98139.42
2019-05-20T16:36:35.415Z,98143.98
2019-05-20T16:39:11.095Z,98147.28
2019-05-20T16:41:46.344Z,98132.26
2019-05-20T16:44:20.401Z,98128.27
2019-05-20T16:46:56.528Z,98127.73
2019-05-20T16:49:31.341Z,98128.38
2019-05-20T16:52:06.030Z,98137.52
2019-05-20T16:54:41.244Z,98126.00
2019-05-20T16:57:16.502Z,98139.19
2019-05-20T16:59:51.641Z,98131.39
2019-05-20T17:02:25.693Z,98138.78
2019-05-20T17:05:00.827Z,98132.08
2019-05-20T17:07:35.474Z,98128.14
2019-05-20T17:10:10.847Z,98132.91
2019-05-20T17:12:44.819Z,98132.33
2019-05-20T17:15:20.163Z,98131.27
2019-05-20T17:17:57.284Z,98137.81
2019-05-20T17:20:36.788Z,98139.12
2019-05-20T17:23:12.205Z,98134.94
2019-05-20T17:25:50.370Z,98141.95
2019-05-20T17:28:22.054Z,98151.94
2019-05-20T17:30:55.951Z,98152.55
2019-05-20T17:33:29.411Z,98145.78
2019-05-20T17:36:04.123Z,98159.13
2019-05-20T17:38:37.587Z,98158.07
2019-05-20T17:41:11.402Z,98154.48
2019-05-20T17:43:45.460Z,98162.41
2019-05-20T17:46:20.003Z,98158.70
2019-05-20T17:48:54.141Z,98167.35
2019-05-20T17:51:29.138Z,98157.91
2019-05-20T17:54:06.615Z,98167.87
2019-05-20T17:56:45.483Z,98157.34
2019-05-20T17:59:22.865Z,98158.66
2019-05-20T18:01:56.831Z,98160.97
2019-05-20T18:04:34.453Z,98162.00
2019-05-20T18:07:08.384Z,98168.64
2019-05-20T18:09:46.363Z,98168.95
2019-05-20T18:12:20.016Z,98173.17
2019-05-20T18:14:56.472Z,98171.83
2019-05-20T18:17:30.142Z,98176.60
2019-05-20T18:20:03.998Z,98180.67
2019-05-20T18:22:38.649Z,98185.25
2019-05-20T18:25:13.227Z,98181.94
2019-05-20T18:27:47.134Z,98189.16
2019-05-20T18:30:21.404Z,98185.02
2019-05-20T18:32:56.581Z,98185.84
2019-05-20T18:35:29.839Z,98189.98
2019-05-20T18:38:03.863Z,98193.53
2019-05-20T18:40:38.893Z,98191.80
2019-05-20T18:43:12.380Z,98189.23
2019-05-20T18:45:46.581Z,98197.37
2019-05-20T18:48:22.988Z,98195.33
2019-05-20T18:50:57.221Z,98202.14
2019-05-20T18:53:33.475Z,98204.81
2019-05-20T18:56:08.599Z,98208.23
2019-05-20T18:58:52.983Z,98200.77
2019-05-20T19:01:28.340Z,98201.34
2019-05-20T19:04:03.083Z,98215.71
2019-05-20T19:06:37.080Z,98204.28
2019-05-20T19:09:12.168Z,98205.59
2019-05-20T19:11:45.830Z,98208.95
2019-05-20T19:14:19.749Z,98210.55
2019-05-20T19:16:53.717Z,98206.60
2019-05-20T19:19:29.879Z,98211.67
2019-05-20T19:22:04.315Z,98214.84
2019-05-20T19:24:41.703Z,98224.28
2019-05-20T19:27:18.191Z,98221.23
2019-05-20T19:29:59.050Z,98220.77
2019-05-20T19:32:34.370Z,98215.95
2019-05-20T19:35:09.424Z,98222.31
2019-05-20T19:37:44.167Z,98221.30
2019-05-20T19:40:20.147Z,98223.19
2019-05-20T19:43:03.066Z,98223.78
2019-05-20T19:45:37.484Z,98240.26
2019-05-20T19:48:13.855Z,98232.02
2019-05-20T19:50:50.334Z,98241.64
2019-05-20T19:53:24.614Z,98234.45
2019-05-20T19:55:59.247Z,98239.86
2019-05-20T19:58:34.766Z,98241.59
2019-05-20T20:01:10.944Z,98235.85
2019-05-20T20:03:45.000Z,98238.53
2019-05-20T20:06:20.199Z,98241.47
2019-05-20T20:08:55.564Z,98247.69
2019-05-20T20:11:31.604Z,98249.73
2019-05-20T20:14:06.657Z,98239.38
2019-05-20T20:16:41.265Z,98242.00
2019-05-20T20:19:16.634Z,98249.00
2019-05-20T20:21:51.591Z,98252.09
2019-05-20T20:24:25.650Z,98251.90
2019-05-20T20:26:59.854Z,98255.20
2019-05-20T20:29:47.563Z,98243.89
2019-05-20T20:32:37.281Z,98250.94
2019-05-20T20:35:04.273Z,98248.05
2019-05-20T20:37:39.321Z,98245.94
2019-05-20T20:40:14.450Z,98241.06
2019-05-20T20:42:48.841Z,98257.61
2019-05-20T20:45:22.661Z,98250.11
2019-05-20T20:47:58.914Z,98259.56
2019-05-20T20:50:32.904Z,98256.45
2019-05-20T20:53:07.295Z,98251.15
2019-05-20T20:55:43.333Z,98246.42
2019-05-20T20:58:21.025Z,98249.09
2019-05-20T21:00:56.023Z,98244.93
2019-05-20T21:03:33.746Z,98255.62
2019-05-20T21:06:08.410Z,98261.35
2019-05-20T21:08:47.008Z,98262.77
2019-05-20T21:11:22.778Z,98260.51
2019-05-20T21:17:14.990Z,98261.72
2019-05-20T21:19:49.067Z,98263.98
2019-05-20T21:22:23.049Z,98263.16
2019-05-20T21:24:58.376Z,98263.87
2019-05-20T21:27:32.998Z,98257.81
2019-05-20T21:30:07.387Z,98268.76
2019-05-20T21:32:41.142Z,98269.57
2019-05-20T21:35:14.992Z,98280.34
2019-05-20T21:37:48.599Z,98267.33
2019-05-20T21:40:23.280Z,98271.69
2019-05-20T21:42:57.642Z,98275.74
2019-05-20T21:45:33.961Z,98272.52
2019-05-20T21:48:08.142Z,98269.69
2019-05-20T21:50:44.468Z,98267.17
2019-05-20T21:53:18.223Z,98269.06
2019-05-20T21:55:52.403Z,98270.94
2019-05-20T21:58:26.898Z,98271.38
2019-05-20T22:01:00.299Z,98267.69
2019-05-20T22:03:34.385Z,98268.26
2019-05-20T22:06:08.260Z,98271.42
2019-05-20T22:08:43.653Z,98272.20
2019-05-20T22:11:17.453Z,98278.61
2019-05-20T22:13:51.441Z,98275.66
2019-05-20T22:16:29.453Z,98276.20
2019-05-20T22:19:00.548Z,98283.87
2019-05-20T22:21:40.559Z,98282.55
2019-05-20T22:24:14.223Z,98282.66
2019-05-20T22:26:48.488Z,98279.53
2019-05-20T22:29:24.103Z,98286.39
2019-05-20T22:31:58.911Z,98290.31
2019-05-20T22:34:32.049Z,98283.48
2019-05-20T22:37:05.377Z,98280.65
2019-05-20T22:39:38.818Z,98277.55
2019-05-20T22:42:11.878Z,98278.86
2019-05-20T22:44:46.487Z,98277.19
2019-05-20T22:47:19.883Z,98278.03
2019-05-20T22:49:53.187Z,98278.17
2019-05-20T22:52:28.315Z,98279.42
2019-05-20T22:55:01.324Z,98288.70
2019-05-20T22:57:34.689Z,98287.59
2019-05-20T23:00:08.424Z,98292.88
2019-05-20T23:02:42.121Z,98290.71
2019-05-20T23:05:15.522Z,98297.67
2019-05-20T23:07:49.585Z,98307.76
2019-05-20T23:10:23.780Z,98303.27
2019-05-20T23:12:57.223Z,98295.52
2019-05-20T23:15:30.534Z,98300.27
2019-05-20T23:18:03.633Z,98295.56
2019-05-20T23:20:37.459Z,98287.09
2019-05-20T23:23:11.802Z,98298.19
2019-05-20T23:25:45.311Z,98308.14
2019-05-20T23:28:21.320Z,98306.47
2019-05-20T23:30:55.664Z,98297.03
2019-05-20T23:33:29.216Z,98296.34
2019-05-20T23:36:02.865Z,98296.05
2019-05-20T23:38:36.512Z,98292.89
2019-05-20T23:41:10.494Z,98280.80
2019-05-20T23:43:43.743Z,98283.86
2019-05-20T23:46:17.215Z,98283.02
2019-05-20T23:48:51.301Z,98282.16
2019-05-20T23:51:25.318Z,98274.14
2019-05-20T23:53:58.870Z,98276.15
2019-05-20T23:56:32.462Z,98277.06
2019-05-20T23:59:05.753Z,98283.14
